Time;durP1;ratioP1;P1;durP2;ratioP2;P2;SDS_P1;SDS_P2;PMS_P1;PMS_P2;Temp;Humidity;BMP_temperature;BMP_pressure;BME280_temperature;BME280_humidity;BME280_pressure;Samples;Min_cycle;Max_cycle;Signal;HPM_P1;HPM_P2
2021/06/22 00:00:37;;;;;;;6.55;4.10;;;20.30;99.90;;;;;;5070677;28;20895;-57
2021/06/22 00:03:04;;;;;;;9.35;4.25;;;20.30;99.90;;;;;;5070946;28;20205;-57
2021/06/22 00:05:31;;;;;;;7.88;4.25;;;20.20;99.90;;;;;;5070964;28;20212;-58
2021/06/22 00:07:58;;;;;;;4.72;3.72;;;20.20;99.90;;;;;;5070902;28;20604;-57
2021/06/22 00:10:29;;;;;;;6.60;4.47;;;20.30;99.90;;;;;;5071078;28;20335;-57
2021/06/22 00:12:56;;;;;;;10.90;4.50;;;20.30;99.90;;;;;;5071206;28;20235;-57
2021/06/22 00:15:25;;;;;;;8.38;5.20;;;20.30;99.90;;;;;;5070991;28;20200;-57
2021/06/22 00:17:52;;;;;;;8.55;5.05;;;20.30;99.90;;;;;;5070650;28;20258;-57
2021/06/22 00:20:21;;;;;;;7.18;4.55;;;20.20;99.90;;;;;;5070829;28;20708;-58
2021/06/22 00:22:48;;;;;;;8.60;5.70;;;20.20;99.90;;;;;;5070821;28;20586;-57
2021/06/22 00:25:16;;;;;;;7.63;5.75;;;20.10;99.90;;;;;;5070995;28;20239;-57
2021/06/22 00:27:44;;;;;;;6.07;4.72;;;20.10;99.90;;;;;;5070815;28;20477;-58
2021/06/22 00:30:12;;;;;;;7.55;5.13;;;20.10;99.90;;;;;;5070713;28;20228;-57
2021/06/22 00:32:40;;;;;;;7.65;5.15;;;20.10;99.90;;;;;;5070634;28;20258;-58
2021/06/22 00:35:08;;;;;;;8.77;6.47;;;20.10;99.90;;;;;;5070459;28;20201;-58
2021/06/22 00:37:35;;;;;;;6.88;5.43;;;20.20;99.90;;;;;;5071025;28;20232;-57
2021/06/22 00:40:01;;;;;;;9.95;5.65;;;20.30;99.90;;;;;;5070472;28;20229;-57
2021/06/22 00:42:28;;;;;;;5.15;4.70;;;20.30;99.90;;;;;;5070654;28;20592;-58
2021/06/22 00:45:00;;;;;;;5.30;4.80;;;20.40;99.90;;;;;;5070573;28;20588;-57
2021/06/22 00:47:28;;;;;;;8.07;4.53;;;20.50;99.90;;;;;;5074521;28;20213;-57
2021/06/22 00:49:55;;;;;;;6.03;4.45;;;20.60;99.90;;;;;;5074124;28;20229;-57
2021/06/22 00:52:23;;;;;;;5.82;4.35;;;20.70;99.90;;;;;;5074278;28;20205;-58
2021/06/22 00:54:50;;;;;;;5.68;4.13;;;20.70;99.90;;;;;;5074185;28;20208;-57
2021/06/22 00:57:18;;;;;;;6.13;4.65;;;20.70;99.90;;;;;;5074373;28;20228;-57
2021/06/22 00:59:46;;;;;;;7.18;4.22;;;20.70;99.90;;;;;;5073848;28;20256;-57
2021/06/22 01:02:14;;;;;;;5.40;4.65;;;20.70;99.90;;;;;;5074086;28;20201;-57
2021/06/22 01:04:41;;;;;;;8.57;5.00;;;20.70;99.90;;;;;;5074142;28;20205;-57
2021/06/22 01:07:12;;;;;;;5.47;4.30;;;20.70;99.90;;;;;;5074316;28;20295;-58
2021/06/22 01:09:39;;;;;;;9.65;5.35;;;20.60;99.90;;;;;;5073699;28;20731;-57
2021/06/22 01:12:07;;;;;;;6.55;4.57;;;20.60;99.90;;;;;;5074140;28;20641;-57
2021/06/22 01:14:34;;;;;;;4.68;4.07;;;20.40;99.90;;;;;;5074014;28;20232;-58
2021/06/22 01:17:00;;;;;;;4.93;4.03;;;20.40;99.90;;;;;;5073879;28;20205;-57
2021/06/22 01:19:31;;;;;;;6.72;4.38;;;20.30;99.90;;;;;;5073837;28;20224;-57
2021/06/22 01:21:59;;;;;;;4.93;3.47;;;20.30;99.90;;;;;;5073731;28;20257;-57
2021/06/22 01:24:25;;;;;;;4.70;3.88;;;20.20;99.90;;;;;;5073560;28;20246;-57
2021/06/22 01:26:55;;;;;;;6.30;4.10;;;20.10;99.90;;;;;;5073753;28;20212;-58
2021/06/22 01:29:22;;;;;;;7.75;4.72;;;20.10;99.90;;;;;;5073503;28;20236;-57
2021/06/22 01:31:50;;;;;;;6.18;4.45;;;20.10;99.90;;;;;;5073925;28;20204;-57
2021/06/22 01:34:21;;;;;;;5.10;4.47;;;20.10;99.90;;;;;;5073956;28;20209;-57
2021/06/22 01:36:48;;;;;;;9.93;4.78;;;20.10;99.90;;;;;;5073708;28;20213;-58
2021/06/22 01:39:17;;;;;;;12.07;4.68;;;20.10;99.90;;;;;;5074703;28;20256;-58
2021/06/22 01:41:44;;;;;;;11.30;5.32;;;20.10;99.90;;;;;;5073509;28;20205;-57
2021/06/22 01:44:11;;;;;;;7.43;5.22;;;20.30;99.90;;;;;;5073290;28;20205;-58
2021/06/22 01:46:38;;;;;;;9.70;5.15;;;20.40;99.90;;;;;;5073639;28;20209;-57
2021/06/22 01:49:05;;;;;;;8.38;4.95;;;20.50;99.90;;;;;;5073702;28;20208;-58
2021/06/22 01:51:31;;;;;;;9.10;4.78;;;20.60;99.90;;;;;;5073976;28;20727;-57
2021/06/22 01:54:00;;;;;;;6.45;4.95;;;20.70;99.90;;;;;;5074203;28;20441;-57
2021/06/22 01:56:31;;;;;;;6.70;4.93;;;20.90;99.90;;;;;;5073688;28;20212;-58
2021/06/22 01:58:59;;;;;;;8.98;4.95;;;20.90;99.90;;;;;;5072586;28;20243;-57
2021/06/22 02:01:26;;;;;;;8.93;4.40;;;21.00;99.90;;;;;;5095542;22;20231;-61
2021/06/22 02:03:53;;;;;;;8.25;3.90;;;21.00;99.90;;;;;;5073409;28;20205;-60
2021/06/22 02:06:19;;;;;;;7.75;3.85;;;21.10;99.90;;;;;;5074293;28;20204;-61
2021/06/22 02:08:46;;;;;;;7.25;3.33;;;21.00;99.90;;;;;;5072713;28;20201;-61
2021/06/22 02:11:13;;;;;;;4.60;3.05;;;21.00;99.90;;;;;;5072688;28;20228;-61
2021/06/22 02:13:41;;;;;;;11.88;3.20;;;20.90;99.90;;;;;;5072543;28;20692;-61
2021/06/22 02:16:07;;;;;;;7.75;3.10;;;20.90;99.90;;;;;;5073261;28;20209;-61
2021/06/22 02:18:34;;;;;;;6.10;2.75;;;20.80;99.90;;;;;;5072791;28;20232;-61
2021/06/22 02:21:03;;;;;;;7.00;2.50;;;20.80;99.90;;;;;;5072424;28;20232;-61
2021/06/22 02:23:29;;;;;;;4.25;2.45;;;20.80;99.90;;;;;;5072296;28;20623;-61
2021/06/22 02:25:56;;;;;;;5.13;2.50;;;20.70;99.90;;;;;;5072379;28;20216;-61
2021/06/22 02:28:23;;;;;;;9.02;2.80;;;20.70;99.90;;;;;;5072315;28;20201;-61
2021/06/22 02:30:53;;;;;;;8.00;2.63;;;20.60;99.90;;;;;;5072423;28;20225;-61
2021/06/22 02:33:20;;;;;;;6.55;2.40;;;20.60;99.90;;;;;;5072518;28;20216;-61
2021/06/22 02:35:47;;;;;;;5.43;3.17;;;20.60;99.90;;;;;;5072624;28;20259;-61
2021/06/22 02:38:15;;;;;;;5.47;2.67;;;20.60;99.90;;;;;;5071894;28;20221;-61
2021/06/22 02:40:43;;;;;;;12.10;6.53;;;20.60;99.90;;;;;;5072405;28;20232;-61
2021/06/22 02:43:10;;;;;;;8.75;2.30;;;20.50;99.90;;;;;;5072317;28;20213;-61
2021/06/22 02:45:37;;;;;;;7.55;2.60;;;20.50;99.90;;;;;;5072048;28;20209;-61
2021/06/22 02:48:08;;;;;;;5.43;2.25;;;20.40;99.90;;;;;;5072041;28;20209;-61
2021/06/22 02:50:36;;;;;;;6.22;2.55;;;20.40;99.90;;;;;;5071953;28;20320;-61
2021/06/22 02:53:03;;;;;;;6.20;2.35;;;20.40;99.90;;;;;;5071833;28;20204;-61
2021/06/22 02:55:30;;;;;;;2.70;2.20;;;20.40;99.90;;;;;;5071914;28;20584;-61
2021/06/22 02:57:58;;;;;;;5.45;2.92;;;20.40;99.90;;;;;;5072199;28;20220;-61
2021/06/22 03:00:26;;;;;;;5.72;2.70;;;20.10;99.90;;;;;;5071819;28;20236;-61
2021/06/22 03:02:53;;;;;;;8.95;5.57;;;20.50;99.90;;;;;;5072309;28;20208;-61
2021/06/22 03:05:22;;;;;;;8.90;3.22;;;20.50;99.90;;;;;;5071865;28;20563;-61
2021/06/22 03:07:49;;;;;;;4.70;2.78;;;20.40;99.90;;;;;;5071982;28;20726;-61
2021/06/22 03:10:18;;;;;;;9.85;2.90;;;20.50;99.90;;;;;;5072220;28;20228;-61
2021/06/22 03:12:45;;;;;;;8.73;4.18;;;20.50;99.90;;;;;;5072030;28;20739;-61
2021/06/22 03:15:15;;;;;;;3.13;2.72;;;20.50;99.90;;;;;;5072176;28;20209;-61
2021/06/22 03:17:41;;;;;;;5.90;2.92;;;20.50;99.90;;;;;;5072076;28;20209;-61
2021/06/22 03:20:10;;;;;;;9.50;2.83;;;20.50;99.90;;;;;;5071895;28;20236;-61
2021/06/22 03:22:39;;;;;;;7.25;4.53;;;20.60;99.90;;;;;;5071861;28;20208;-61
2021/06/22 03:25:07;;;;;;;4.72;2.88;;;20.70;99.90;;;;;;5071755;28;20205;-61
2021/06/22 03:27:34;;;;;;;3.70;2.88;;;20.60;99.90;;;;;;5071868;28;20569;-61
2021/06/22 03:30:00;;;;;;;8.23;6.97;;;20.70;99.90;;;;;;5071145;28;20197;-61
2021/06/22 03:32:27;;;;;;;8.05;7.22;;;20.60;99.90;;;;;;5071230;28;20280;-62
2021/06/22 03:34:54;;;;;;;9.02;7.65;;;20.50;99.90;;;;;;5071300;28;20209;-60
2021/06/22 03:37:21;;;;;;;11.70;7.40;;;20.60;99.90;;;;;;5071181;28;20228;-61
2021/06/22 03:39:49;;;;;;;9.32;6.95;;;20.60;99.90;;;;;;5070937;28;20232;-60
2021/06/22 03:42:16;;;;;;;10.73;8.00;;;20.60;99.90;;;;;;5071087;28;20225;-61
2021/06/22 03:44:42;;;;;;;30.92;19.20;;;20.50;99.90;;;;;;5071037;28;20205;-61
2021/06/22 03:47:09;;;;;;;13.60;9.68;;;20.50;99.90;;;;;;5071051;28;20228;-61
2021/06/22 03:49:36;;;;;;;10.07;8.43;;;20.50;99.90;;;;;;5070931;28;20239;-62
2021/06/22 03:52:03;;;;;;;9.77;7.97;;;20.50;99.90;;;;;;5070977;28;20248;-60
2021/06/22 03:54:30;;;;;;;9.65;8.52;;;20.50;99.90;;;;;;5070821;28;20204;-61
2021/06/22 03:56:58;;;;;;;11.40;9.60;;;20.50;99.90;;;;;;5070865;28;20684;-61
2021/06/22 03:59:25;;;;;;;9.98;8.98;;;20.50;99.90;;;;;;5070745;28;20223;-61
2021/06/22 04:01:52;;;;;;;10.77;9.07;;;20.40;99.90;;;;;;5070522;28;20233;-61
2021/06/22 04:04:18;;;;;;;10.65;9.20;;;20.40;99.90;;;;;;5070947;28;20212;-61
2021/06/22 04:06:45;;;;;;;11.25;8.55;;;20.40;99.90;;;;;;5070774;28;20204;-61
2021/06/22 04:09:12;;;;;;;9.32;8.40;;;20.30;99.90;;;;;;5070595;28;20584;-61
2021/06/22 04:11:38;;;;;;;9.68;8.25;;;19.80;99.90;;;;;;5070498;28;20708;-61
2021/06/22 04:14:06;;;;;;;10.75;9.75;;;20.30;99.90;;;;;;5070264;28;20216;-61
2021/06/22 04:16:33;;;;;;;11.48;9.18;;;20.40;99.90;;;;;;5070804;28;20204;-60
2021/06/22 04:19:00;;;;;;;10.30;9.40;;;20.40;99.90;;;;;;5070880;28;20311;-60
2021/06/22 04:21:27;;;;;;;9.95;8.63;;;20.40;99.90;;;;;;5073485;28;20286;-62
2021/06/22 04:23:53;;;;;;;10.95;9.85;;;20.50;99.90;;;;;;5074976;28;20217;-62
2021/06/22 04:26:20;;;;;;;9.80;8.65;;;20.60;99.90;;;;;;5074646;28;20200;-62
2021/06/22 04:28:46;;;;;;;8.70;7.90;;;20.70;99.90;;;;;;5074633;28;20204;-62
2021/06/22 04:31:15;;;;;;;9.68;8.77;;;20.80;99.90;;;;;;5075024;28;20224;-61
2021/06/22 04:33:41;;;;;;;9.02;8.20;;;20.90;99.90;;;;;;5074987;28;20201;-61
2021/06/22 04:36:08;;;;;;;9.10;8.10;;;20.90;99.90;;;;;;5075678;28;20250;-61
2021/06/22 04:38:35;;;;;;;9.45;8.40;;;21.00;99.90;;;;;;5074782;28;20205;-61
2021/06/22 04:41:02;;;;;;;9.38;8.00;;;21.00;99.90;;;;;;5074509;28;20232;-61
2021/06/22 04:43:29;;;;;;;8.48;7.72;;;21.00;99.90;;;;;;5074283;28;20672;-61
2021/06/22 04:45:55;;;;;;;10.38;8.40;;;21.00;99.90;;;;;;5074294;28;20573;-61
2021/06/22 04:48:24;;;;;;;9.40;8.50;;;21.20;99.90;;;;;;5074160;28;20219;-61
2021/06/22 04:50:52;;;;;;;8.38;7.60;;;21.20;99.90;;;;;;5074327;28;20221;-61
2021/06/22 04:53:20;;;;;;;8.57;7.82;;;21.30;99.90;;;;;;5074371;28;20212;-61
2021/06/22 04:55:46;;;;;;;8.38;7.60;;;21.40;99.90;;;;;;5073805;28;20215;-61
2021/06/22 04:58:13;;;;;;;9.10;8.27;;;21.50;99.90;;;;;;5073690;28;20622;-61
2021/06/22 05:00:40;;;;;;;9.35;7.32;;;21.60;99.90;;;;;;5073879;28;20320;-61
2021/06/22 05:03:07;;;;;;;8.05;6.70;;;21.70;99.90;;;;;;5074297;28;20207;-62
2021/06/22 05:05:35;;;;;;;7.85;7.00;;;22.00;99.90;;;;;;5074059;28;20236;-61
2021/06/22 05:08:02;;;;;;;8.75;6.60;;;22.60;99.90;;;;;;5073686;28;20812;-62
2021/06/22 05:10:29;;;;;;;8.32;6.40;;;23.20;99.90;;;;;;5073613;28;20236;-62
2021/06/22 05:12:55;;;;;;;6.53;5.93;;;23.30;99.90;;;;;;5074009;28;20201;-61
2021/06/22 05:15:22;;;;;;;6.13;5.53;;;23.20;99.90;;;;;;5073523;28;20208;-61
2021/06/22 05:17:49;;;;;;;6.00;5.22;;;23.10;99.90;;;;;;5073470;28;20687;-61
2021/06/22 05:20:16;;;;;;;5.85;5.25;;;22.80;99.90;;;;;;5073786;28;20235;-61
2021/06/22 05:22:44;;;;;;;5.38;4.90;;;22.50;99.90;;;;;;5073697;28;20209;-61
2021/06/22 05:25:11;;;;;;;5.20;4.70;;;22.30;99.90;;;;;;5073407;28;20618;-61
2021/06/22 05:27:38;;;;;;;5.25;4.75;;;22.20;99.90;;;;;;5073616;28;20213;-62
2021/06/22 05:30:06;;;;;;;5.82;4.90;;;22.20;99.90;;;;;;5073305;28;20571;-62
2021/06/22 05:32:33;;;;;;;5.80;5.20;;;22.30;99.90;;;;;;5073626;28;20205;-61
2021/06/22 05:34:59;;;;;;;7.18;5.28;;;22.40;99.90;;;;;;5073488;28;20216;-61
2021/06/22 05:37:26;;;;;;;5.68;4.57;;;22.50;99.90;;;;;;5073233;28;20227;-60
2021/06/22 05:39:54;;;;;;;7.10;4.70;;;22.60;99.90;;;;;;5073481;28;20232;-60
2021/06/22 05:42:21;;;;;;;4.63;4.15;;;22.90;99.90;;;;;;5073450;28;20201;-60
2021/06/22 05:44:48;;;;;;;5.05;4.30;;;23.10;99.90;;;;;;5073156;28;20503;-61
2021/06/22 05:47:14;;;;;;;5.65;4.15;;;23.50;99.90;;;;;;5073398;28;20417;-61
2021/06/22 05:49:41;;;;;;;3.95;3.60;;;24.00;99.90;;;;;;5073029;28;20566;-61
2021/06/22 05:52:08;;;;;;;5.78;3.92;;;24.50;99.90;;;;;;5072526;28;20233;-61
2021/06/22 05:54:36;;;;;;;6.47;3.40;;;24.90;99.90;;;;;;5073076;28;20205;-61
2021/06/22 05:57:05;;;;;;;5.53;3.10;;;25.40;99.90;;;;;;5072948;28;20205;-61
2021/06/22 05:59:32;;;;;;;5.40;2.92;;;27.30;99.90;;;;;;5072663;28;20323;-62
2021/06/22 06:01:59;;;;;;;4.93;2.60;;;29.10;99.90;;;;;;5073218;28;20614;-63
2021/06/22 06:04:27;;;;;;;2.95;2.60;;;29.90;99.90;;;;;;5073477;28;20673;-67
2021/06/22 06:06:55;;;;;;;3.13;2.45;;;31.20;99.90;;;;;;5071765;28;20201;-63
2021/06/22 06:09:21;;;;;;;4.60;2.40;;;32.70;96.10;;;;;;5072839;28;20208;-64
2021/06/22 06:11:48;;;;;;;2.92;2.40;;;32.70;93.40;;;;;;5073025;28;20236;-62
2021/06/22 06:14:16;;;;;;;2.47;2.20;;;32.00;94.10;;;;;;5072868;28;20205;-61
2021/06/22 06:16:43;;;;;;;5.40;2.80;;;31.20;95.30;;;;;;5072638;28;20216;-62
2021/06/22 06:19:10;;;;;;;4.90;2.88;;;30.60;95.90;;;;;;5072396;28;20205;-61
2021/06/22 06:21:38;;;;;;;5.65;4.75;;;29.90;97.30;;;;;;5072392;28;20232;-61
2021/06/22 06:24:06;;;;;;;5.05;2.80;;;29.40;99.10;;;;;;5072480;28;20232;-61
2021/06/22 06:26:39;;;;;;;5.10;2.75;;;29.00;99.80;;;;;;5072267;28;20212;-61
2021/06/22 06:29:11;;;;;;;3.75;2.95;;;28.70;99.90;;;;;;5072227;28;20205;-61
2021/06/22 06:31:39;;;;;;;3.25;2.95;;;28.30;99.90;;;;;;5072086;28;20945;-61
2021/06/22 06:34:06;;;;;;;5.63;3.00;;;27.70;99.90;;;;;;5072387;28;20262;-62
2021/06/22 06:36:32;;;;;;;9.23;5.97;;;27.10;99.90;;;;;;5072321;28;20255;-60
2021/06/22 06:38:59;;;;;;;5.00;3.10;;;26.70;99.90;;;;;;5072133;28;20209;-60
2021/06/22 06:41:26;;;;;;;4.00;3.53;;;26.50;99.90;;;;;;5072121;28;20225;-60
2021/06/22 06:43:52;;;;;;;3.85;3.20;;;26.40;99.90;;;;;;5071503;28;20201;-61
2021/06/22 06:46:19;;;;;;;6.25;2.63;;;26.30;99.90;;;;;;5071984;28;20609;-61
2021/06/22 06:48:47;;;;;;;4.57;3.67;;;26.20;99.90;;;;;;5071810;28;20738;-61
2021/06/22 06:51:14;;;;;;;5.53;3.75;;;26.00;99.90;;;;;;5072279;28;20221;-61
2021/06/22 06:53:40;;;;;;;4.68;4.20;;;25.90;99.90;;;;;;5071706;28;20209;-61
2021/06/22 06:56:07;;;;;;;6.45;4.60;;;25.70;99.90;;;;;;5072197;28;20209;-62
2021/06/22 06:58:34;;;;;;;5.38;4.32;;;25.30;99.90;;;;;;5072054;28;20215;-61
2021/06/22 07:01:00;;;;;;;4.35;3.95;;;24.70;99.90;;;;;;5071648;28;20233;-60
2021/06/22 07:03:27;;;;;;;8.00;4.55;;;24.40;99.90;;;;;;5071366;28;20235;-60
2021/06/22 07:05:55;;;;;;;6.47;4.60;;;24.50;99.90;;;;;;5072162;28;20695;-60
2021/06/22 07:08:22;;;;;;;7.22;3.97;;;24.40;99.90;;;;;;5072011;28;20270;-65
2021/06/22 07:10:48;;;;;;;4.18;3.30;;;24.50;99.90;;;;;;5072767;28;20247;-62
2021/06/22 07:13:16;;;;;;;5.65;3.40;;;24.50;99.90;;;;;;5072441;28;20236;-63
2021/06/22 07:15:44;;;;;;;6.28;3.70;;;24.90;99.90;;;;;;5071877;28;20294;-62
2021/06/22 07:18:10;;;;;;;6.32;3.60;;;25.30;99.90;;;;;;5071497;28;20216;-62
2021/06/22 07:20:37;;;;;;;7.22;3.40;;;25.70;99.90;;;;;;5071543;28;20239;-63
2021/06/22 07:23:05;;;;;;;4.22;3.70;;;26.00;99.90;;;;;;5071441;28;20212;-62
2021/06/22 07:25:32;;;;;;;6.22;3.92;;;26.20;99.90;;;;;;5071295;28;20208;-63
2021/06/22 07:27:59;;;;;;;6.30;4.15;;;26.30;99.90;;;;;;5071167;28;20219;-63
2021/06/22 07:30:27;;;;;;;5.43;4.53;;;26.30;99.90;;;;;;5071284;28;20221;-63
2021/06/22 07:32:55;;;;;;;7.15;4.63;;;26.30;99.90;;;;;;5071448;28;20304;-63
2021/06/22 07:35:22;;;;;;;6.57;5.35;;;26.50;99.90;;;;;;5071423;28;20208;-63
2021/06/22 07:37:49;;;;;;;7.75;4.63;;;26.50;99.90;;;;;;5071011;28;20304;-63
2021/06/22 07:40:18;;;;;;;11.85;5.07;;;26.50;99.90;;;;;;5070756;28;20236;-63
2021/06/22 07:42:45;;;;;;;11.30;6.32;;;26.20;99.90;;;;;;5070855;28;20702;-63
2021/06/22 07:45:13;;;;;;;7.25;5.40;;;25.90;99.90;;;;;;5071065;28;20212;-63
2021/06/22 07:47:39;;;;;;;6.00;5.05;;;25.90;99.90;;;;;;5071257;28;20213;-63
2021/06/22 07:50:09;;;;;;;10.77;6.00;;;25.90;99.90;;;;;;5070767;28;20594;-63
2021/06/22 07:52:36;;;;;;;7.15;6.00;;;26.10;99.90;;;;;;5070880;28;20672;-63
2021/06/22 07:55:02;;;;;;;9.75;4.80;;;26.10;99.90;;;;;;5069746;28;20207;-63
2021/06/22 07:57:30;;;;;;;7.88;4.85;;;26.00;99.90;;;;;;5071273;28;20228;-63
2021/06/22 07:59:57;;;;;;;9.00;5.28;;;26.00;99.90;;;;;;5070523;28;20224;-63
2021/06/22 08:02:24;;;;;;;9.85;5.68;;;26.30;99.90;;;;;;5112161;22;20228;-63
2021/06/22 08:04:51;;;;;;;9.70;5.93;;;26.50;99.90;;;;;;5091270;28;20208;-64
2021/06/22 08:07:17;;;;;;;10.05;5.45;;;26.50;99.90;;;;;;5091273;28;20200;-63
2021/06/22 08:09:44;;;;;;;6.68;5.63;;;26.70;99.90;;;;;;5091635;28;20204;-63
2021/06/22 08:12:11;;;;;;;6.65;4.80;;;26.80;99.90;;;;;;5091296;28;20231;-63
2021/06/22 08:14:39;;;;;;;9.15;5.20;;;26.90;99.90;;;;;;5091009;28;20211;-63
2021/06/22 08:17:07;;;;;;;7.53;5.35;;;26.80;99.90;;;;;;5091111;28;20200;-63
2021/06/22 08:19:33;;;;;;;7.53;6.00;;;26.80;99.90;;;;;;5090822;28;20254;-62
2021/06/22 08:22:02;;;;;;;8.75;5.35;;;26.70;99.90;;;;;;5090819;28;20225;-63
2021/06/22 08:24:29;;;;;;;13.45;6.35;;;26.70;99.90;;;;;;5091439;28;20201;-64
2021/06/22 08:26:55;;;;;;;9.90;4.95;;;26.50;99.90;;;;;;5091502;28;20822;-64
2021/06/22 08:29:22;;;;;;;9.18;5.90;;;26.20;99.90;;;;;;5091050;28;20212;-63
2021/06/22 08:31:50;;;;;;;14.95;13.52;;;26.00;99.90;;;;;;5090968;28;20227;-63
2021/06/22 08:34:17;;;;;;;11.73;6.55;;;26.00;99.90;;;;;;5090752;28;20208;-63
2021/06/22 08:36:43;;;;;;;6.07;4.82;;;25.90;99.90;;;;;;5090831;28;20694;-64
2021/06/22 08:39:10;;;;;;;13.40;10.25;;;25.80;99.90;;;;;;5091101;28;20212;-63
2021/06/22 08:41:39;;;;;;;12.52;7.78;;;25.80;99.90;;;;;;5090690;28;20715;-62
2021/06/22 08:44:09;;;;;;;8.75;6.53;;;26.20;99.90;;;;;;5090580;28;20208;-64
2021/06/22 08:46:36;;;;;;;10.20;7.30;;;26.40;99.90;;;;;;5091055;28;20240;-63
2021/06/22 08:49:05;;;;;;;12.35;8.15;;;26.40;99.90;;;;;;5090873;28;20291;-63
2021/06/22 08:51:32;;;;;;;8.85;5.53;;;26.50;99.90;;;;;;5090569;28;20220;-64
2021/06/22 08:53:59;;;;;;;7.50;6.80;;;26.20;99.90;;;;;;5090493;28;20200;-63
2021/06/22 08:56:26;;;;;;;7.00;5.40;;;26.00;99.90;;;;;;5090850;28;20204;-62
2021/06/22 08:58:54;;;;;;;9.55;7.40;;;25.70;99.90;;;;;;5090493;28;20215;-63
2021/06/22 09:01:20;;;;;;;8.00;5.72;;;25.70;99.90;;;;;;5090406;28;20238;-62
2021/06/22 09:03:47;;;;;;;11.50;8.32;;;25.70;99.90;;;;;;5090384;28;20205;-63
2021/06/22 09:06:15;;;;;;;7.20;5.88;;;25.60;99.90;;;;;;5091491;28;20208;-63
2021/06/22 09:08:50;;;;;;;8.55;6.75;;;25.20;99.90;;;;;;5094340;28;20211;-62
2021/06/22 09:11:17;;;;;;;12.18;6.53;;;24.60;99.90;;;;;;5094211;28;20223;-63
2021/06/22 09:13:55;;;;;;;11.45;6.20;;;24.10;99.90;;;;;;5094050;28;20644;-64
2021/06/22 09:16:22;;;;;;;8.80;6.93;;;23.60;99.90;;;;;;5094773;28;20223;-61
2021/06/22 09:18:49;;;;;;;7.75;6.90;;;23.20;99.90;;;;;;5094369;28;20211;-62
2021/06/22 09:21:22;;;;;;;8.10;6.60;;;23.10;99.90;;;;;;5094474;28;20306;-61
2021/06/22 09:23:49;;;;;;;10.25;7.28;;;22.80;99.90;;;;;;5093829;28;20208;-62
2021/06/22 09:26:20;;;;;;;9.88;7.75;;;22.50;99.90;;;;;;5093861;28;20557;-64
2021/06/22 09:28:48;;;;;;;9.18;7.50;;;22.60;99.90;;;;;;5093692;28;20584;-58
2021/06/22 09:31:16;;;;;;;11.18;8.30;;;22.70;99.90;;;;;;5093829;28;20703;-58
2021/06/22 09:33:44;;;;;;;10.60;9.23;;;23.00;99.90;;;;;;5093943;28;20590;-58
2021/06/22 09:36:13;;;;;;;9.48;8.15;;;23.30;99.90;;;;;;5094069;28;20687;-59
2021/06/22 09:38:44;;;;;;;9.30;7.28;;;23.60;99.90;;;;;;5093734;28;20204;-58
2021/06/22 09:41:18;;;;;;;9.32;6.93;;;23.70;99.90;;;;;;5093951;28;20318;-58
2021/06/22 09:43:47;;;;;;;11.63;7.75;;;23.80;99.90;;;;;;5094049;28;20308;-59
2021/06/22 09:46:15;;;;;;;10.15;6.68;;;23.90;99.90;;;;;;5094395;28;20227;-58
2021/06/22 09:48:52;;;;;;;10.18;6.80;;;24.00;99.90;;;;;;5094173;28;20255;-59
2021/06/22 09:51:20;;;;;;;7.53;6.80;;;24.00;99.90;;;;;;5093826;28;20298;-58
2021/06/22 09:53:48;;;;;;;14.23;12.77;;;24.20;99.90;;;;;;5093178;28;20235;-58
2021/06/22 09:56:24;;;;;;;9.98;6.65;;;24.60;99.90;;;;;;5093218;28;20674;-56
2021/06/22 09:58:52;;;;;;;8.00;6.50;;;25.00;99.90;;;;;;5093373;28;20467;-59
2021/06/22 10:01:33;;;;;;;10.32;6.20;;;25.30;99.90;;;;;;5080848;28;20236;-60
2021/06/22 10:04:21;;;;;;;13.00;11.32;;;25.40;99.90;;;;;;5072546;28;20653;-62
2021/06/22 10:06:50;;;;;;;7.25;6.38;;;25.60;99.90;;;;;;5073208;28;20205;-62
2021/06/22 10:09:25;;;;;;;8.75;6.22;;;26.10;99.90;;;;;;5072656;28;20208;-61
2021/06/22 10:12:01;;;;;;;9.20;5.85;;;26.60;99.90;;;;;;5072776;28;20217;-61
2021/06/22 10:14:30;;;;;;;7.28;6.00;;;26.80;99.90;;;;;;5072383;28;20212;-58
2021/06/22 10:16:59;;;;;;;8.32;5.35;;;26.90;99.90;;;;;;5072852;28;20208;-58
2021/06/22 10:19:26;;;;;;;7.72;6.03;;;26.90;99.90;;;;;;5071691;28;20211;-59
2021/06/22 10:21:55;;;;;;;8.18;5.97;;;26.70;99.90;;;;;;5072126;28;20707;-59
2021/06/22 10:24:24;;;;;;;13.30;5.80;;;26.50;99.90;;;;;;5072509;28;20212;-58
2021/06/22 10:26:52;;;;;;;6.05;5.50;;;26.40;99.90;;;;;;5072423;28;20208;-58
2021/06/22 10:29:20;;;;;;;16.27;6.82;;;26.20;99.90;;;;;;5072506;28;20213;-58
2021/06/22 10:31:48;;;;;;;12.73;6.93;;;26.10;99.90;;;;;;5072466;28;20220;-58
2021/06/22 10:34:16;;;;;;;10.13;6.45;;;26.00;99.90;;;;;;5072130;28;20628;-58
2021/06/22 10:36:48;;;;;;;8.35;5.85;;;26.00;99.90;;;;;;5072314;28;20205;-59
2021/06/22 10:39:21;;;;;;;7.95;6.80;;;26.00;99.90;;;;;;5072270;28;20204;-58
2021/06/22 10:41:49;;;;;;;9.43;7.03;;;25.80;99.90;;;;;;5071833;28;20237;-58
2021/06/22 10:44:37;;;;;;;11.32;7.07;;;25.70;99.90;;;;;;5072402;28;20210;-59
2021/06/22 10:47:20;;;;;;;9.02;7.05;;;25.80;99.90;;;;;;5072080;28;20236;-58
2021/06/22 10:50:22;;;;;;;8.68;7.25;;;25.90;99.90;;;;;;5071819;28;20205;-58
2021/06/22 10:53:01;;;;;;;9.60;8.18;;;25.80;99.90;;;;;;5071785;28;20627;-57
2021/06/22 10:56:04;;;;;;;8.55;7.65;;;25.80;99.90;;;;;;5071643;28;20247;-58
2021/06/22 10:58:32;;;;;;;8.07;7.28;;;26.00;99.90;;;;;;5072114;28;20189;-59
2021/06/22 11:01:14;;;;;;;8.95;7.50;;;26.20;99.90;;;;;;5071950;28;20237;-59
2021/06/22 11:03:42;;;;;;;12.02;7.88;;;26.30;99.90;;;;;;5071887;28;20668;-58
2021/06/22 11:06:22;;;;;;;10.68;7.93;;;26.20;99.90;;;;;;5072339;28;20241;-58
2021/06/22 11:08:49;;;;;;;8.32;7.40;;;26.30;99.90;;;;;;5071427;28;20216;-60
2021/06/22 11:11:19;;;;;;;11.32;10.15;;;26.50;99.90;;;;;;5071607;28;20225;-59
2021/06/22 11:13:50;;;;;;;8.48;7.53;;;26.90;99.90;;;;;;5071319;28;20749;-59
2021/06/22 11:16:32;;;;;;;8.30;7.32;;;27.30;99.90;;;;;;5071758;28;20270;-59
2021/06/22 11:19:10;;;;;;;7.88;6.93;;;27.60;99.90;;;;;;5071451;28;20281;-58
2021/06/22 11:21:39;;;;;;;9.27;6.82;;;27.60;99.90;;;;;;5071449;28;20695;-58
2021/06/22 11:24:10;;;;;;;8.13;5.93;;;27.50;99.90;;;;;;5071083;28;20216;-58
2021/06/22 11:27:00;;;;;;;6.30;4.93;;;27.60;99.90;;;;;;5071125;28;20231;-60
2021/06/22 11:29:54;;;;;;;8.15;5.28;;;27.90;99.90;;;;;;5070627;28;20211;-62
2021/06/22 11:32:39;;;;;;;6.80;5.38;;;28.20;99.90;;;;;;5071543;28;20221;-62
2021/06/22 11:35:18;;;;;;;5.13;4.40;;;28.50;99.90;;;;;;5071146;28;20208;-56
2021/06/22 11:37:46;;;;;;;5.38;4.88;;;28.60;99.90;;;;;;5070890;28;20757;-59
2021/06/22 11:40:21;;;;;;;7.50;5.05;;;28.70;99.90;;;;;;5071434;28;20299;-58
2021/06/22 11:43:08;;;;;;;5.50;4.97;;;28.60;99.90;;;;;;5070857;28;20575;-59
2021/06/22 11:45:38;;;;;;;5.68;4.57;;;28.70;99.90;;;;;;5071021;28;20215;-59
2021/06/22 11:48:05;;;;;;;7.18;4.78;;;28.70;99.90;;;;;;5070884;28;20213;-58
2021/06/22 11:50:37;;;;;;;6.43;4.80;;;28.70;99.90;;;;;;5071145;28;20209;-60
2021/06/22 11:53:09;;;;;;;6.38;5.18;;;28.50;99.90;;;;;;5070709;28;20204;-62
2021/06/22 11:55:48;;;;;;;6.97;6.00;;;28.40;99.90;;;;;;5070823;28;20209;-60
2021/06/22 11:58:20;;;;;;;6.70;5.32;;;28.20;99.90;;;;;;5070642;28;20668;-59
2021/06/22 12:00:49;;;;;;;7.03;5.93;;;27.90;99.90;;;;;;5070375;28;20611;-58
2021/06/22 12:03:15;;;;;;;8.75;6.35;;;27.60;99.90;;;;;;5070760;28;20671;-61
2021/06/22 12:05:42;;;;;;;13.48;6.70;;;27.30;99.90;;;;;;5070661;28;20212;-58
2021/06/22 12:08:11;;;;;;;10.10;6.45;;;27.00;99.90;;;;;;5070953;28;20205;-60
2021/06/22 12:10:44;;;;;;;9.40;5.88;;;26.80;99.90;;;;;;5069700;28;20266;-60
2021/06/22 12:13:11;;;;;;;9.90;6.60;;;26.70;99.90;;;;;;5069879;28;20213;-59
2021/06/22 12:15:40;;;;;;;6.38;5.60;;;26.60;99.90;;;;;;5070423;28;20204;-59
2021/06/22 12:18:08;;;;;;;9.63;6.00;;;26.40;99.90;;;;;;5070890;28;20209;-57
2021/06/22 12:20:38;;;;;;;9.13;5.70;;;26.20;99.90;;;;;;5070704;28;20224;-59
2021/06/22 12:23:07;;;;;;;7.18;5.10;;;26.30;99.90;;;;;;5070588;28;20232;-59
2021/06/22 12:25:37;;;;;;;6.57;4.80;;;26.50;99.90;;;;;;5070273;28;20640;-59
2021/06/22 12:28:04;;;;;;;9.20;4.28;;;26.40;99.90;;;;;;5070618;28;20216;-59
2021/06/22 12:30:37;;;;;;;5.97;4.30;;;26.20;99.90;;;;;;5070628;28;20209;-60
2021/06/22 12:33:13;;;;;;;5.15;3.88;;;26.10;99.90;;;;;;5071183;28;20196;-60
2021/06/22 12:35:40;;;;;;;4.88;4.35;;;26.10;99.90;;;;;;5070654;28;20242;-60
2021/06/22 12:38:08;;;;;;;6.88;5.75;;;26.10;99.90;;;;;;5070304;28;20580;-60
2021/06/22 12:40:46;;;;;;;7.07;4.00;;;26.00;99.90;;;;;;5070508;28;20236;-60
2021/06/22 12:43:15;;;;;;;4.97;4.20;;;25.80;99.90;;;;;;5074154;28;20711;-60
2021/06/22 12:45:42;;;;;;;5.85;4.00;;;25.60;99.90;;;;;;5074278;28;20205;-60
2021/06/22 12:48:11;;;;;;;5.75;4.00;;;25.40;99.90;;;;;;5073963;28;20212;-60
2021/06/22 12:50:40;;;;;;;3.55;3.25;;;25.20;99.90;;;;;;5073919;28;20224;-60
2021/06/22 12:53:10;;;;;;;4.90;3.83;;;25.00;99.90;;;;;;5073886;28;20684;-60